sensor_id;sensor_type;location;lat;lon;timestamp;P1;durP1;ratioP1;P2;durP2;ratioP2
75682;SDS011;64295;44.772;39.872;2023-04-24T00:00:56;4.55;;;1.48;;
75682;SDS011;64295;44.772;39.872;2023-04-24T00:03:24;5.38;;;2.53;;
75682;SDS011;64295;44.772;39.872;2023-04-24T00:05:51;4.30;;;1.38;;
75682;SDS011;64295;44.772;39.872;2023-04-24T00:08:17;7.55;;;2.70;;
75682;SDS011;64295;44.772;39.872;2023-04-24T00:10:43;2.50;;;1.42;;
75682;SDS011;64295;44.772;39.872;2023-04-24T00:13:09;2.25;;;1.23;;
75682;SDS011;64295;44.772;39.872;2023-04-24T00:15:35;3.38;;;1.27;;
75682;SDS011;64295;44.772;39.872;2023-04-24T00:18:01;2.70;;;1.65;;
75682;SDS011;64295;44.772;39.872;2023-04-24T00:20:28;4.93;;;1.85;;
75682;SDS011;64295;44.772;39.872;2023-04-24T00:22:54;2.80;;;2.10;;
75682;SDS011;64295;44.772;39.872;2023-04-24T00:25:21;4.45;;;1.83;;
75682;SDS011;64295;44.772;39.872;2023-04-24T00:27:47;2.10;;;1.15;;
75682;SDS011;64295;44.772;39.872;2023-04-24T00:30:13;2.33;;;1.58;;
75682;SDS011;64295;44.772;39.872;2023-04-24T00:32:39;4.75;;;1.75;;
75682;SDS011;64295;44.772;39.872;2023-04-24T00:35:05;3.58;;;2.25;;
75682;SDS011;64295;44.772;39.872;2023-04-24T00:37:32;7.50;;;2.35;;
75682;SDS011;64295;44.772;39.872;2023-04-24T00:39:58;1.80;;;1.15;;
75682;SDS011;64295;44.772;39.872;2023-04-24T00:42:24;2.90;;;1.58;;
75682;SDS011;64295;44.772;39.872;2023-04-24T00:44:51;3.80;;;2.53;;
75682;SDS011;64295;44.772;39.872;2023-04-24T00:47:19;2.33;;;1.23;;
75682;SDS011;64295;44.772;39.872;2023-04-24T00:49:45;3.28;;;1.30;;
75682;SDS011;64295;44.772;39.872;2023-04-24T00:52:11;2.88;;;1.55;;
75682;SDS011;64295;44.772;39.872;2023-04-24T00:54:37;2.35;;;1.38;;
75682;SDS011;64295;44.772;39.872;2023-04-24T00:57:03;5.43;;;1.63;;
75682;SDS011;64295;44.772;39.872;2023-04-24T00:59:30;5.82;;;2.08;;
75682;SDS011;64295;44.772;39.872;2023-04-24T01:01:56;2.42;;;1.45;;
75682;SDS011;64295;44.772;39.872;2023-04-24T01:04:23;2.65;;;1.15;;
75682;SDS011;64295;44.772;39.872;2023-04-24T01:06:51;2.60;;;1.67;;
75682;SDS011;64295;44.772;39.872;2023-04-24T01:09:18;5.57;;;1.73;;
75682;SDS011;64295;44.772;39.872;2023-04-24T01:11:46;10.52;;;2.08;;
75682;SDS011;64295;44.772;39.872;2023-04-24T01:14:12;5.13;;;1.88;;
75682;SDS011;64295;44.772;39.872;2023-04-24T01:16:38;1.20;;;1.05;;
75682;SDS011;64295;44.772;39.872;2023-04-24T01:19:05;2.10;;;1.40;;
75682;SDS011;64295;44.772;39.872;2023-04-24T01:21:32;3.13;;;1.58;;
75682;SDS011;64295;44.772;39.872;2023-04-24T01:24:02;1.05;;;0.70;;
75682;SDS011;64295;44.772;39.872;2023-04-24T01:26:28;6.40;;;1.45;;
75682;SDS011;64295;44.772;39.872;2023-04-24T01:28:58;3.20;;;1.27;;
75682;SDS011;64295;44.772;39.872;2023-04-24T01:31:24;8.25;;;2.72;;
75682;SDS011;64295;44.772;39.872;2023-04-24T01:33:50;3.35;;;1.85;;
75682;SDS011;64295;44.772;39.872;2023-04-24T01:36:17;3.33;;;2.60;;
75682;SDS011;64295;44.772;39.872;2023-04-24T01:38:44;6.15;;;1.58;;
75682;SDS011;64295;44.772;39.872;2023-04-24T01:41:10;3.00;;;1.67;;
75682;SDS011;64295;44.772;39.872;2023-04-24T01:43:36;5.93;;;1.63;;
75682;SDS011;64295;44.772;39.872;2023-04-24T01:46:02;1.90;;;1.17;;
75682;SDS011;64295;44.772;39.872;2023-04-24T01:48:28;3.38;;;2.22;;
75682;SDS011;64295;44.772;39.872;2023-04-24T01:50:56;3.28;;;1.55;;
75682;SDS011;64295;44.772;39.872;2023-04-24T01:53:22;3.78;;;1.90;;
75682;SDS011;64295;44.772;39.872;2023-04-24T01:55:48;5.28;;;2.15;;
75682;SDS011;64295;44.772;39.872;2023-04-24T01:58:14;4.88;;;1.80;;
75682;SDS011;64295;44.772;39.872;2023-04-24T02:00:40;4.75;;;1.52;;
75682;SDS011;64295;44.772;39.872;2023-04-24T02:03:06;3.80;;;1.92;;
75682;SDS011;64295;44.772;39.872;2023-04-24T02:05:32;2.35;;;1.05;;
75682;SDS011;64295;44.772;39.872;2023-04-24T02:07:58;6.78;;;1.95;;
75682;SDS011;64295;44.772;39.872;2023-04-24T02:10:24;4.45;;;1.50;;
75682;SDS011;64295;44.772;39.872;2023-04-24T02:12:50;2.08;;;1.65;;
75682;SDS011;64295;44.772;39.872;2023-04-24T02:15:16;5.93;;;2.10;;
75682;SDS011;64295;44.772;39.872;2023-04-24T02:17:43;3.45;;;1.40;;
75682;SDS011;64295;44.772;39.872;2023-04-24T02:20:09;1.90;;;1.13;;
75682;SDS011;64295;44.772;39.872;2023-04-24T02:22:37;3.65;;;2.33;;
75682;SDS011;64295;44.772;39.872;2023-04-24T02:25:03;2.35;;;1.13;;
75682;SDS011;64295;44.772;39.872;2023-04-24T02:27:29;2.42;;;1.55;;
75682;SDS011;64295;44.772;39.872;2023-04-24T02:29:56;2.72;;;1.75;;
75682;SDS011;64295;44.772;39.872;2023-04-24T02:32:21;1.95;;;1.17;;
75682;SDS011;64295;44.772;39.872;2023-04-24T02:34:47;3.55;;;1.63;;
75682;SDS011;64295;44.772;39.872;2023-04-24T02:37:13;3.13;;;1.48;;
75682;SDS011;64295;44.772;39.872;2023-04-24T02:39:39;3.13;;;1.58;;
75682;SDS011;64295;44.772;39.872;2023-04-24T02:42:05;5.10;;;1.90;;
75682;SDS011;64295;44.772;39.872;2023-04-24T02:44:34;3.92;;;2.38;;
75682;SDS011;64295;44.772;39.872;2023-04-24T02:47:00;1.88;;;1.40;;
75682;SDS011;64295;44.772;39.872;2023-04-24T02:49:26;3.47;;;1.77;;
75682;SDS011;64295;44.772;39.872;2023-04-24T02:51:53;3.40;;;2.22;;
75682;SDS011;64295;44.772;39.872;2023-04-24T02:54:18;5.93;;;2.28;;
75682;SDS011;64295;44.772;39.872;2023-04-24T02:56:44;1.38;;;1.30;;
75682;SDS011;64295;44.772;39.872;2023-04-24T02:59:10;4.53;;;2.13;;
75682;SDS011;64295;44.772;39.872;2023-04-24T03:01:36;3.88;;;1.38;;
75682;SDS011;64295;44.772;39.872;2023-04-24T03:04:02;3.45;;;1.75;;
75682;SDS011;64295;44.772;39.872;2023-04-24T03:06:28;4.80;;;2.38;;
75682;SDS011;64295;44.772;39.872;2023-04-24T03:08:56;3.03;;;1.80;;
75682;SDS011;64295;44.772;39.872;2023-04-24T03:11:22;6.32;;;2.65;;
75682;SDS011;64295;44.772;39.872;2023-04-24T03:13:48;8.25;;;3.15;;
75682;SDS011;64295;44.772;39.872;2023-04-24T03:16:14;5.85;;;3.30;;
75682;SDS011;64295;44.772;39.872;2023-04-24T03:18:40;3.55;;;2.17;;
75682;SDS011;64295;44.772;39.872;2023-04-24T03:21:07;2.72;;;1.83;;
75682;SDS011;64295;44.772;39.872;2023-04-24T03:23:33;4.68;;;2.95;;
75682;SDS011;64295;44.772;39.872;2023-04-24T03:25:59;3.85;;;1.65;;
75682;SDS011;64295;44.772;39.872;2023-04-24T03:28:25;6.90;;;3.17;;
75682;SDS011;64295;44.772;39.872;2023-04-24T03:30:58;3.53;;;2.70;;
75682;SDS011;64295;44.772;39.872;2023-04-24T03:33:27;3.92;;;2.42;;
75682;SDS011;64295;44.772;39.872;2023-04-24T03:35:58;6.85;;;3.15;;
75682;SDS011;64295;44.772;39.872;2023-04-24T03:38:25;3.83;;;3.47;;
75682;SDS011;64295;44.772;39.872;2023-04-24T03:40:58;3.67;;;2.53;;
75682;SDS011;64295;44.772;39.872;2023-04-24T03:43:47;7.25;;;3.13;;
75682;SDS011;64295;44.772;39.872;2023-04-24T03:46:14;4.78;;;2.15;;
75682;SDS011;64295;44.772;39.872;2023-04-24T03:48:45;5.30;;;1.75;;
75682;SDS011;64295;44.772;39.872;2023-04-24T03:51:12;2.53;;;1.98;;
75682;SDS011;64295;44.772;39.872;2023-04-24T03:53:42;3.88;;;1.85;;
75682;SDS011;64295;44.772;39.872;2023-04-24T03:56:11;2.20;;;1.77;;
75682;SDS011;64295;44.772;39.872;2023-04-24T03:58:39;2.47;;;1.10;;
75682;SDS011;64295;44.772;39.872;2023-04-24T04:01:05;2.15;;;1.95;;
75682;SDS011;64295;44.772;39.872;2023-04-24T04:03:46;3.63;;;2.38;;
75682;SDS011;64295;44.772;39.872;2023-04-24T04:06:16;3.25;;;1.75;;
75682;SDS011;64295;44.772;39.872;2023-04-24T04:08:42;2.25;;;1.63;;
75682;SDS011;64295;44.772;39.872;2023-04-24T04:11:08;13.48;;;7.40;;
75682;SDS011;64295;44.772;39.872;2023-04-24T04:13:34;6.45;;;4.05;;
75682;SDS011;64295;44.772;39.872;2023-04-24T04:16:00;4.53;;;1.80;;
75682;SDS011;64295;44.772;39.872;2023-04-24T04:18:26;2.78;;;1.83;;
75682;SDS011;64295;44.772;39.872;2023-04-24T04:20:52;6.93;;;1.83;;
75682;SDS011;64295;44.772;39.872;2023-04-24T04:23:19;4.32;;;1.75;;
75682;SDS011;64295;44.772;39.872;2023-04-24T04:26:01;3.38;;;2.03;;
75682;SDS011;64295;44.772;39.872;2023-04-24T04:28:40;2.33;;;1.67;;
75682;SDS011;64295;44.772;39.872;2023-04-24T04:31:07;2.95;;;1.98;;
75682;SDS011;64295;44.772;39.872;2023-04-24T04:33:33;3.65;;;1.98;;
75682;SDS011;64295;44.772;39.872;2023-04-24T04:36:01;3.38;;;1.27;;
75682;SDS011;64295;44.772;39.872;2023-04-24T04:38:30;3.40;;;2.05;;
75682;SDS011;64295;44.772;39.872;2023-04-24T04:41:03;8.25;;;3.30;;
75682;SDS011;64295;44.772;39.872;2023-04-24T04:43:32;4.32;;;2.20;;
75682;SDS011;64295;44.772;39.872;2023-04-24T04:45:59;2.90;;;1.55;;
75682;SDS011;64295;44.772;39.872;2023-04-24T04:48:26;1.63;;;1.50;;
75682;SDS011;64295;44.772;39.872;2023-04-24T04:50:54;4.68;;;2.08;;
75682;SDS011;64295;44.772;39.872;2023-04-24T04:53:21;3.17;;;1.63;;
75682;SDS011;64295;44.772;39.872;2023-04-24T04:55:47;6.05;;;1.73;;
75682;SDS011;64295;44.772;39.872;2023-04-24T04:58:15;3.35;;;2.13;;
75682;SDS011;64295;44.772;39.872;2023-04-24T05:00:42;2.60;;;1.70;;
75682;SDS011;64295;44.772;39.872;2023-04-24T05:03:24;7.28;;;2.55;;
75682;SDS011;64295;44.772;39.872;2023-04-24T05:06:02;6.20;;;1.77;;
75682;SDS011;64295;44.772;39.872;2023-04-24T05:08:32;7.68;;;1.98;;
75682;SDS011;64295;44.772;39.872;2023-04-24T05:10:58;3.70;;;2.35;;
75682;SDS011;64295;44.772;39.872;2023-04-24T05:13:26;4.07;;;2.20;;
75682;SDS011;64295;44.772;39.872;2023-04-24T05:15:53;3.28;;;1.88;;
75682;SDS011;64295;44.772;39.872;2023-04-24T05:18:19;4.05;;;1.88;;
75682;SDS011;64295;44.772;39.872;2023-04-24T05:20:46;4.18;;;1.88;;
75682;SDS011;64295;44.772;39.872;2023-04-24T05:26:45;2.72;;;1.27;;
75682;SDS011;64295;44.772;39.872;2023-04-24T05:29:14;4.05;;;1.90;;
75682;SDS011;64295;44.772;39.872;2023-04-24T05:31:41;1.88;;;1.42;;
75682;SDS011;64295;44.772;39.872;2023-04-24T05:34:07;2.17;;;1.67;;
75682;SDS011;64295;44.772;39.872;2023-04-24T05:36:38;2.60;;;1.63;;
75682;SDS011;64295;44.772;39.872;2023-04-24T05:39:04;2.47;;;1.65;;
75682;SDS011;64295;44.772;39.872;2023-04-24T05:41:30;5.25;;;2.42;;
75682;SDS011;64295;44.772;39.872;2023-04-24T05:43:56;7.63;;;3.13;;
75682;SDS011;64295;44.772;39.872;2023-04-24T05:46:22;2.42;;;1.98;;
75682;SDS011;64295;44.772;39.872;2023-04-24T05:48:49;3.80;;;1.60;;
75682;SDS011;64295;44.772;39.872;2023-04-24T05:51:15;5.30;;;2.67;;
75682;SDS011;64295;44.772;39.872;2023-04-24T05:53:41;5.75;;;2.67;;
75682;SDS011;64295;44.772;39.872;2023-04-24T05:56:07;4.38;;;2.08;;
75682;SDS011;64295;44.772;39.872;2023-04-24T05:58:34;4.43;;;2.53;;
75682;SDS011;64295;44.772;39.872;2023-04-24T06:01:00;2.75;;;1.70;;
75682;SDS011;64295;44.772;39.872;2023-04-24T06:03:28;8.45;;;1.95;;
75682;SDS011;64295;44.772;39.872;2023-04-24T06:05:54;9.07;;;2.90;;
75682;SDS011;64295;44.772;39.872;2023-04-24T06:08:21;2.78;;;1.98;;
75682;SDS011;64295;44.772;39.872;2023-04-24T06:10:48;6.05;;;2.30;;
75682;SDS011;64295;44.772;39.872;2023-04-24T06:13:17;4.18;;;2.20;;
75682;SDS011;64295;44.772;39.872;2023-04-24T06:15:58;5.18;;;2.35;;
75682;SDS011;64295;44.772;39.872;2023-04-24T06:18:32;4.55;;;2.47;;
75682;SDS011;64295;44.772;39.872;2023-04-24T06:20:58;4.85;;;2.55;;
75682;SDS011;64295;44.772;39.872;2023-04-24T06:23:24;3.25;;;2.00;;
75682;SDS011;64295;44.772;39.872;2023-04-24T06:25:50;3.65;;;1.63;;
75682;SDS011;64295;44.772;39.872;2023-04-24T06:28:17;2.75;;;1.63;;
75682;SDS011;64295;44.772;39.872;2023-04-24T06:30:43;3.95;;;2.08;;
75682;SDS011;64295;44.772;39.872;2023-04-24T06:33:09;3.33;;;1.92;;
75682;SDS011;64295;44.772;39.872;2023-04-24T06:35:36;2.88;;;1.45;;
75682;SDS011;64295;44.772;39.872;2023-04-24T06:38:06;5.88;;;1.95;;
75682;SDS011;64295;44.772;39.872;2023-04-24T06:40:34;5.25;;;2.55;;
75682;SDS011;64295;44.772;39.872;2023-04-24T06:43:03;3.35;;;1.98;;
75682;SDS011;64295;44.772;39.872;2023-04-24T06:45:30;5.30;;;1.60;;
75682;SDS011;64295;44.772;39.872;2023-04-24T06:48:25;2.30;;;1.25;;
75682;SDS011;64295;44.772;39.872;2023-04-24T06:50:52;2.65;;;2.00;;
75682;SDS011;64295;44.772;39.872;2023-04-24T06:53:17;3.00;;;1.77;;
75682;SDS011;64295;44.772;39.872;2023-04-24T06:55:43;6.25;;;2.42;;
75682;SDS011;64295;44.772;39.872;2023-04-24T06:58:12;4.60;;;2.22;;
75682;SDS011;64295;44.772;39.872;2023-04-24T07:00:38;3.38;;;1.85;;
75682;SDS011;64295;44.772;39.872;2023-04-24T07:03:13;2.45;;;1.80;;
75682;SDS011;64295;44.772;39.872;2023-04-24T07:05:51;4.82;;;3.00;;
75682;SDS011;64295;44.772;39.872;2023-04-24T07:08:38;3.63;;;2.72;;
75682;SDS011;64295;44.772;39.872;2023-04-24T07:11:04;3.63;;;2.67;;
75682;SDS011;64295;44.772;39.872;2023-04-24T07:13:30;4.15;;;1.77;;
75682;SDS011;64295;44.772;39.872;2023-04-24T07:16:00;4.00;;;2.28;;
75682;SDS011;64295;44.772;39.872;2023-04-24T07:18:26;4.80;;;1.88;;
75682;SDS011;64295;44.772;39.872;2023-04-24T07:20:52;5.43;;;2.70;;
75682;SDS011;64295;44.772;39.872;2023-04-24T07:23:19;2.83;;;1.58;;
75682;SDS011;64295;44.772;39.872;2023-04-24T07:25:47;5.88;;;1.88;;
75682;SDS011;64295;44.772;39.872;2023-04-24T07:28:23;4.53;;;2.30;;
75682;SDS011;64295;44.772;39.872;2023-04-24T07:30:54;6.95;;;1.98;;
75682;SDS011;64295;44.772;39.872;2023-04-24T07:33:20;5.22;;;2.85;;
75682;SDS011;64295;44.772;39.872;2023-04-24T07:35:46;7.93;;;2.83;;
75682;SDS011;64295;44.772;39.872;2023-04-24T07:38:12;2.20;;;1.15;;
75682;SDS011;64295;44.772;39.872;2023-04-24T07:40:38;4.05;;;1.98;;
75682;SDS011;64295;44.772;39.872;2023-04-24T07:43:04;9.60;;;3.45;;
75682;SDS011;64295;44.772;39.872;2023-04-24T07:45:30;9.88;;;2.90;;
75682;SDS011;64295;44.772;39.872;2023-04-24T07:47:56;12.02;;;3.10;;
75682;SDS011;64295;44.772;39.872;2023-04-24T07:50:22;7.20;;;4.38;;
75682;SDS011;64295;44.772;39.872;2023-04-24T07:52:48;8.50;;;4.75;;
75682;SDS011;64295;44.772;39.872;2023-04-24T07:55:14;6.75;;;3.65;;
75682;SDS011;64295;44.772;39.872;2023-04-24T07:57:40;8.63;;;4.00;;
75682;SDS011;64295;44.772;39.872;2023-04-24T08:00:06;8.82;;;4.20;;
75682;SDS011;64295;44.772;39.872;2023-04-24T08:02:38;5.40;;;3.65;;
75682;SDS011;64295;44.772;39.872;2023-04-24T08:05:05;5.93;;;4.72;;
75682;SDS011;64295;44.772;39.872;2023-04-24T08:07:31;8.48;;;5.03;;
75682;SDS011;64295;44.772;39.872;2023-04-24T08:09:57;10.85;;;4.13;;
75682;SDS011;64295;44.772;39.872;2023-04-24T08:12:24;7.03;;;4.15;;
75682;SDS011;64295;44.772;39.872;2023-04-24T08:14:50;9.07;;;5.10;;
75682;SDS011;64295;44.772;39.872;2023-04-24T08:17:16;7.38;;;4.47;;
75682;SDS011;64295;44.772;39.872;2023-04-24T08:19:42;4.95;;;3.22;;
75682;SDS011;64295;44.772;39.872;2023-04-24T08:22:16;10.10;;;4.88;;
75682;SDS011;64295;44.772;39.872;2023-04-24T08:27:09;9.82;;;4.65;;
75682;SDS011;64295;44.772;39.872;2023-04-24T08:29:35;7.40;;;3.50;;
75682;SDS011;64295;44.772;39.872;2023-04-24T08:32:02;7.72;;;3.92;;
75682;SDS011;64295;44.772;39.872;2023-04-24T08:34:28;16.48;;;6.38;;
75682;SDS011;64295;44.772;39.872;2023-04-24T08:36:53;7.65;;;4.13;;
75682;SDS011;64295;44.772;39.872;2023-04-24T08:39:19;5.40;;;2.13;;
75682;SDS011;64295;44.772;39.872;2023-04-24T08:41:45;9.65;;;3.70;;
75682;SDS011;64295;44.772;39.872;2023-04-24T08:44:15;5.57;;;3.13;;
75682;SDS011;64295;44.772;39.872;2023-04-24T08:46:47;8.50;;;4.20;;
75682;SDS011;64295;44.772;39.872;2023-04-24T08:49:15;9.45;;;4.13;;
75682;SDS011;64295;44.772;39.872;2023-04-24T08:51:42;6.97;;;4.28;;
75682;SDS011;64295;44.772;39.872;2023-04-24T08:54:08;7.50;;;4.05;;
75682;SDS011;64295;44.772;39.872;2023-04-24T08:56:34;9.15;;;5.28;;
75682;SDS011;64295;44.772;39.872;2023-04-24T08:59:06;12.77;;;5.07;;
75682;SDS011;64295;44.772;39.872;2023-04-24T09:01:34;8.30;;;4.15;;
75682;SDS011;64295;44.772;39.872;2023-04-24T09:04:03;12.15;;;4.88;;
75682;SDS011;64295;44.772;39.872;2023-04-24T09:06:29;7.93;;;5.05;;
75682;SDS011;64295;44.772;39.872;2023-04-24T09:08:59;12.50;;;5.07;;
75682;SDS011;64295;44.772;39.872;2023-04-24T09:11:27;14.25;;;7.38;;
75682;SDS011;64295;44.772;39.872;2023-04-24T09:13:53;13.23;;;6.43;;
75682;SDS011;64295;44.772;39.872;2023-04-24T09:16:20;11.63;;;6.00;;
75682;SDS011;64295;44.772;39.872;2023-04-24T09:18:48;14.50;;;7.07;;
75682;SDS011;64295;44.772;39.872;2023-04-24T09:21:14;10.43;;;6.38;;
75682;SDS011;64295;44.772;39.872;2023-04-24T09:23:41;9.32;;;4.15;;
75682;SDS011;64295;44.772;39.872;2023-04-24T09:26:07;9.60;;;5.03;;
75682;SDS011;64295;44.772;39.872;2023-04-24T09:28:39;9.68;;;4.03;;
75682;SDS011;64295;44.772;39.872;2023-04-24T09:31:07;12.88;;;5.70;;
75682;SDS011;64295;44.772;39.872;2023-04-24T09:33:54;10.30;;;5.18;;
75682;SDS011;64295;44.772;39.872;2023-04-24T09:36:32;7.07;;;3.70;;
75682;SDS011;64295;44.772;39.872;2023-04-24T09:39:05;10.57;;;5.82;;
75682;SDS011;64295;44.772;39.872;2023-04-24T09:41:52;10.05;;;4.13;;
75682;SDS011;64295;44.772;39.872;2023-04-24T09:44:31;12.75;;;5.60;;
75682;SDS011;64295;44.772;39.872;2023-04-24T09:47:02;11.02;;;5.38;;
75682;SDS011;64295;44.772;39.872;2023-04-24T09:49:38;8.60;;;5.07;;
75682;SDS011;64295;44.772;39.872;2023-04-24T09:52:10;10.32;;;5.65;;
75682;SDS011;64295;44.772;39.872;2023-04-24T09:54:37;7.57;;;5.65;;
75682;SDS011;64295;44.772;39.872;2023-04-24T09:57:07;12.43;;;5.22;;
75682;SDS011;64295;44.772;39.872;2023-04-24T09:59:34;7.15;;;4.63;;
75682;SDS011;64295;44.772;39.872;2023-04-24T10:02:00;7.82;;;4.40;;
75682;SDS011;64295;44.772;39.872;2023-04-24T10:04:32;7.38;;;3.38;;
75682;SDS011;64295;44.772;39.872;2023-04-24T10:06:59;11.13;;;4.57;;
75682;SDS011;64295;44.772;39.872;2023-04-24T10:09:31;4.53;;;2.45;;
75682;SDS011;64295;44.772;39.872;2023-04-24T10:11:58;7.95;;;5.00;;
75682;SDS011;64295;44.772;39.872;2023-04-24T10:14:29;7.30;;;3.92;;
75682;SDS011;64295;44.772;39.872;2023-04-24T10:16:55;6.07;;;3.75;;
75682;SDS011;64295;44.772;39.872;2023-04-24T10:19:23;6.40;;;4.82;;
75682;SDS011;64295;44.772;39.872;2023-04-24T10:21:52;7.22;;;3.55;;
75682;SDS011;64295;44.772;39.872;2023-04-24T10:24:22;6.47;;;4.28;;
75682;SDS011;64295;44.772;39.872;2023-04-24T10:26:48;5.07;;;2.72;;
75682;SDS011;64295;44.772;39.872;2023-04-24T10:29:17;5.30;;;3.30;;
75682;SDS011;64295;44.772;39.872;2023-04-24T10:31:51;4.82;;;3.35;;
75682;SDS011;64295;44.772;39.872;2023-04-24T10:34:20;6.63;;;3.72;;
75682;SDS011;64295;44.772;39.872;2023-04-24T10:36:51;5.93;;;3.72;;
75682;SDS011;64295;44.772;39.872;2023-04-24T10:39:21;7.28;;;3.63;;
75682;SDS011;64295;44.772;39.872;2023-04-24T10:41:51;5.68;;;4.30;;
75682;SDS011;64295;44.772;39.872;2023-04-24T10:44:16;8.43;;;4.53;;
75682;SDS011;64295;44.772;39.872;2023-04-24T10:46:45;7.43;;;3.50;;
75682;SDS011;64295;44.772;39.872;2023-04-24T10:49:27;8.70;;;4.07;;
75682;SDS011;64295;44.772;39.872;2023-04-24T10:51:59;10.98;;;3.88;;
75682;SDS011;64295;44.772;39.872;2023-04-24T11:00:10;13.00;;;4.72;;
75682;SDS011;64295;44.772;39.872;2023-04-24T11:02:59;4.72;;;3.13;;
75682;SDS011;64295;44.772;39.872;2023-04-24T11:08:22;3.90;;;2.17;;
75682;SDS011;64295;44.772;39.872;2023-04-24T11:10:55;4.43;;;3.30;;
75682;SDS011;64295;44.772;39.872;2023-04-24T11:13:25;6.45;;;3.65;;
75682;SDS011;64295;44.772;39.872;2023-04-24T11:21:54;7.07;;;4.35;;
75682;SDS011;64295;44.772;39.872;2023-04-24T11:29:47;7.40;;;3.80;;
75682;SDS011;64295;44.772;39.872;2023-04-24T11:32:24;6.20;;;3.05;;
75682;SDS011;64295;44.772;39.872;2023-04-24T11:34:52;7.22;;;3.90;;
75682;SDS011;64295;44.772;39.872;2023-04-24T11:37:24;7.03;;;3.95;;
75682;SDS011;64295;44.772;39.872;2023-04-24T11:39:53;6.88;;;3.83;;
75682;SDS011;64295;44.772;39.872;2023-04-24T11:42:22;4.80;;;3.20;;
75682;SDS011;64295;44.772;39.872;2023-04-24T11:44:54;5.82;;;3.45;;
75682;SDS011;64295;44.772;39.872;2023-04-24T11:47:27;6.82;;;4.65;;
75682;SDS011;64295;44.772;39.872;2023-04-24T11:49:59;5.30;;;3.50;;
75682;SDS011;64295;44.772;39.872;2023-04-24T11:52:26;5.97;;;3.05;;
75682;SDS011;64295;44.772;39.872;2023-04-24T11:54:52;7.82;;;4.38;;
75682;SDS011;64295;44.772;39.872;2023-04-24T11:57:20;7.63;;;4.53;;
75682;SDS011;64295;44.772;39.872;2023-04-24T11:59:48;10.82;;;4.15;;
75682;SDS011;64295;44.772;39.872;2023-04-24T12:02:21;11.23;;;5.93;;
75682;SDS011;64295;44.772;39.872;2023-04-24T12:04:53;5.85;;;3.95;;
75682;SDS011;64295;44.772;39.872;2023-04-24T12:07:22;9.57;;;5.53;;
75682;SDS011;64295;44.772;39.872;2023-04-24T12:12:20;8.77;;;5.63;;
75682;SDS011;64295;44.772;39.872;2023-04-24T12:17:25;13.20;;;7.10;;
75682;SDS011;64295;44.772;39.872;2023-04-24T12:20:00;9.20;;;4.57;;
75682;SDS011;64295;44.772;39.872;2023-04-24T12:22:50;10.90;;;5.45;;
75682;SDS011;64295;44.772;39.872;2023-04-24T12:25:22;5.85;;;3.42;;
75682;SDS011;64295;44.772;39.872;2023-04-24T12:30:47;6.65;;;3.72;;
75682;SDS011;64295;44.772;39.872;2023-04-24T12:33:20;4.30;;;2.92;;
75682;SDS011;64295;44.772;39.872;2023-04-24T12:35:56;6.57;;;3.28;;
75682;SDS011;64295;44.772;39.872;2023-04-24T12:38:28;6.53;;;3.65;;
75682;SDS011;64295;44.772;39.872;2023-04-24T12:41:05;5.20;;;3.60;;
75682;SDS011;64295;44.772;39.872;2023-04-24T12:43:37;6.88;;;3.60;;
75682;SDS011;64295;44.772;39.872;2023-04-24T12:46:15;5.43;;;2.70;;
75682;SDS011;64295;44.772;39.872;2023-04-24T12:48:41;8.32;;;3.00;;
75682;SDS011;64295;44.772;39.872;2023-04-24T12:51:10;7.53;;;3.67;;
75682;SDS011;64295;44.772;39.872;2023-04-24T12:53:37;4.72;;;2.63;;
75682;SDS011;64295;44.772;39.872;2023-04-24T12:56:03;5.78;;;3.50;;
75682;SDS011;64295;44.772;39.872;2023-04-24T12:58:36;10.02;;;4.13;;
75682;SDS011;64295;44.772;39.872;2023-04-24T13:01:02;5.68;;;3.45;;
75682;SDS011;64295;44.772;39.872;2023-04-24T13:03:28;8.65;;;3.92;;
75682;SDS011;64295;44.772;39.872;2023-04-24T13:05:53;7.45;;;3.83;;
75682;SDS011;64295;44.772;39.872;2023-04-24T13:08:20;6.13;;;3.63;;
75682;SDS011;64295;44.772;39.872;2023-04-24T13:10:46;5.15;;;3.90;;
75682;SDS011;64295;44.772;39.872;2023-04-24T13:13:13;6.00;;;3.88;;
75682;SDS011;64295;44.772;39.872;2023-04-24T13:15:40;5.75;;;3.80;;
75682;SDS011;64295;44.772;39.872;2023-04-24T13:18:07;7.97;;;3.65;;
75682;SDS011;64295;44.772;39.872;2023-04-24T13:20:47;9.85;;;3.88;;
75682;SDS011;64295;44.772;39.872;2023-04-24T13:23:13;9.50;;;4.50;;
75682;SDS011;64295;44.772;39.872;2023-04-24T13:25:42;7.07;;;4.38;;
75682;SDS011;64295;44.772;39.872;2023-04-24T13:28:12;7.28;;;4.22;;
75682;SDS011;64295;44.772;39.872;2023-04-24T13:30:39;8.73;;;3.63;;
75682;SDS011;64295;44.772;39.872;2023-04-24T13:33:06;3.60;;;2.67;;
75682;SDS011;64295;44.772;39.872;2023-04-24T13:35:34;8.85;;;4.18;;
75682;SDS011;64295;44.772;39.872;2023-04-24T13:38:00;6.93;;;4.03;;
75682;SDS011;64295;44.772;39.872;2023-04-24T13:40:31;6.85;;;3.95;;
75682;SDS011;64295;44.772;39.872;2023-04-24T13:42:56;9.57;;;4.32;;
75682;SDS011;64295;44.772;39.872;2023-04-24T13:45:22;9.18;;;3.60;;
75682;SDS011;64295;44.772;39.872;2023-04-24T13:47:48;5.63;;;3.17;;
75682;SDS011;64295;44.772;39.872;2023-04-24T13:50:15;15.02;;;4.63;;
75682;SDS011;64295;44.772;39.872;2023-04-24T13:52:42;7.28;;;4.50;;
75682;SDS011;64295;44.772;39.872;2023-04-24T13:55:10;5.78;;;3.88;;
75682;SDS011;64295;44.772;39.872;2023-04-24T13:57:38;5.30;;;3.72;;
75682;SDS011;64295;44.772;39.872;2023-04-24T14:00:06;7.53;;;3.40;;
75682;SDS011;64295;44.772;39.872;2023-04-24T14:02:36;4.50;;;2.70;;
75682;SDS011;64295;44.772;39.872;2023-04-24T14:05:02;5.18;;;3.70;;
75682;SDS011;64295;44.772;39.872;2023-04-24T14:07:28;8.70;;;2.80;;
75682;SDS011;64295;44.772;39.872;2023-04-24T14:09:55;5.95;;;3.47;;
75682;SDS011;64295;44.772;39.872;2023-04-24T14:12:22;4.20;;;2.97;;
75682;SDS011;64295;44.772;39.872;2023-04-24T14:14:48;4.72;;;3.13;;
75682;SDS011;64295;44.772;39.872;2023-04-24T14:17:14;6.03;;;2.90;;
75682;SDS011;64295;44.772;39.872;2023-04-24T14:19:40;6.57;;;3.40;;
75682;SDS011;64295;44.772;39.872;2023-04-24T14:22:06;10.50;;;3.80;;
75682;SDS011;64295;44.772;39.872;2023-04-24T14:24:32;3.97;;;3.47;;
75682;SDS011;64295;44.772;39.872;2023-04-24T14:26:57;3.53;;;2.50;;
75682;SDS011;64295;44.772;39.872;2023-04-24T14:29:23;4.47;;;2.55;;
75682;SDS011;64295;44.772;39.872;2023-04-24T14:31:51;5.88;;;2.90;;
75682;SDS011;64295;44.772;39.872;2023-04-24T14:34:17;3.35;;;2.55;;
75682;SDS011;64295;44.772;39.872;2023-04-24T14:36:45;7.10;;;3.80;;
75682;SDS011;64295;44.772;39.872;2023-04-24T14:39:10;5.55;;;3.17;;
75682;SDS011;64295;44.772;39.872;2023-04-24T14:41:37;5.20;;;3.42;;
75682;SDS011;64295;44.772;39.872;2023-04-24T14:44:04;4.75;;;2.72;;
75682;SDS011;64295;44.772;39.872;2023-04-24T14:46:30;4.15;;;2.25;;
75682;SDS011;64295;44.772;39.872;2023-04-24T14:48:57;4.35;;;2.47;;
75682;SDS011;64295;44.772;39.872;2023-04-24T14:51:25;9.75;;;3.13;;
75682;SDS011;64295;44.772;39.872;2023-04-24T14:53:52;5.47;;;2.60;;
75682;SDS011;64295;44.772;39.872;2023-04-24T14:56:18;3.53;;;2.42;;
75682;SDS011;64295;44.772;39.872;2023-04-24T14:58:44;3.90;;;2.85;;
75682;SDS011;64295;44.772;39.872;2023-04-24T15:01:10;4.75;;;2.28;;
75682;SDS011;64295;44.772;39.872;2023-04-24T15:03:36;5.43;;;2.85;;
75682;SDS011;64295;44.772;39.872;2023-04-24T15:06:02;4.32;;;2.30;;
75682;SDS011;64295;44.772;39.872;2023-04-24T15:08:28;4.60;;;3.00;;
75682;SDS011;64295;44.772;39.872;2023-04-24T15:10:54;5.30;;;3.35;;
75682;SDS011;64295;44.772;39.872;2023-04-24T15:13:20;4.72;;;2.65;;